Time;durP1;ratioP1;P1;durP2;ratioP2;P2;SDS_P1;SDS_P2;PMS_P1;PMS_P2;Temp;Humidity;BMP_temperature;BMP_pressure;BME280_temperature;BME280_humidity;BME280_pressure;Samples;Min_cycle;Max_cycle;Signal;HPM_P1;HPM_P2
2022/05/12 00:00:03;;;;;;;;;3.75;3.00;;;;;17.97;59.45;101118.75;5106300;27;47172;-85
2022/05/12 00:02:29;;;;;;;;;5.50;2.50;;;;;18.05;59.41;101144.06;5094835;27;45428;-85
2022/05/12 00:04:55;;;;;;;;;5.75;3.75;;;;;17.98;59.73;101137.47;5094916;27;45374;-86
2022/05/12 00:07:21;;;;;;;;;3.25;2.00;;;;;18.00;59.63;101134.66;5093420;27;45601;-85
2022/05/12 00:09:46;;;;;;;;;3.25;3.25;;;;;17.91;59.65;101121.94;5093972;27;45974;-85
2022/05/12 00:12:11;;;;;;;;;3.00;3.00;;;;;18.02;59.69;101140.78;5093854;27;50784;-86
2022/05/12 00:14:37;;;;;;;;;5.50;4.00;;;;;17.96;59.92;101146.66;5095066;27;45520;-86
2022/05/12 00:17:02;;;;;;;;;3.00;3.00;;;;;17.87;59.98;101142.84;5096619;27;45278;-86
2022/05/12 00:19:29;;;;;;;;;3.00;2.25;;;;;17.87;60.18;101145.53;5097209;27;48481;-88
2022/05/12 00:21:55;;;;;;;;;6.25;4.00;;;;;17.81;60.13;101140.66;5094281;27;45365;-88
2022/05/12 00:24:20;;;;;;;;;4.50;3.50;;;;;17.82;60.29;101145.06;5094268;27;45562;-86
2022/05/12 00:26:46;;;;;;;;;5.00;3.00;;;;;17.77;60.74;101150.78;5094750;27;45437;-87
2022/05/12 00:29:11;;;;;;;;;4.75;2.50;;;;;17.68;60.51;101144.31;5096186;27;45621;-87
2022/05/12 00:31:39;;;;;;;;;6.00;3.00;;;;;17.70;60.60;101154.09;5094380;27;45608;-87
2022/05/12 00:34:06;;;;;;;;;6.25;2.25;;;;;17.60;60.86;101143.19;5099762;27;45416;-87
2022/05/12 00:36:32;;;;;;;;;5.00;3.50;;;;;17.73;60.88;101153.88;5095311;27;45519;-86
2022/05/12 00:38:57;;;;;;;;;5.50;4.00;;;;;17.59;60.96;101134.28;5094099;27;45433;-86
2022/05/12 00:41:22;;;;;;;;;4.00;4.00;;;;;17.62;60.82;101158.25;5094916;27;45794;-86
2022/05/12 00:43:51;;;;;;;;;4.00;3.00;;;;;17.66;61.02;101162.41;5095165;27;45409;-86
2022/05/12 00:46:25;;;;;;;;;3.00;2.50;;;;;17.58;61.03;101153.22;5094054;27;45589;-87
2022/05/12 00:48:52;;;;;;;;;5.75;5.00;;;;;17.65;61.30;101174.19;5094185;27;46350;-88
2022/05/12 00:51:22;;;;;;;;;3.25;3.25;;;;;17.66;61.17;101167.81;5094342;27;45377;-87
2022/05/12 00:53:51;;;;;;;;;4.50;3.25;;;;;17.63;60.95;101167.19;5094823;27;45410;-87
2022/05/12 00:56:21;;;;;;;;;3.50;3.50;;;;;17.61;61.12;101174.53;5095239;27;45615;-87
2022/05/12 00:58:49;;;;;;;;;3.75;3.75;;;;;17.56;61.18;101165.97;5094781;27;45320;-87
2022/05/12 01:01:16;;;;;;;;;3.25;2.25;;;;;17.61;61.27;101188.84;5094607;27;45359;-88
2022/05/12 01:03:43;;;;;;;;;5.75;4.00;;;;;17.59;60.93;101193.50;5094189;27;45328;-88
2022/05/12 01:06:11;;;;;;;;;7.00;3.25;;;;;17.62;61.19;101189.72;5094219;27;45356;-84
2022/05/12 01:08:36;;;;;;;;;4.75;3.00;;;;;17.54;61.08;101181.38;5093924;27;45572;-84
2022/05/12 01:11:08;;;;;;;;;5.50;5.00;;;;;17.57;61.10;101200.84;5096003;27;45274;-85
2022/05/12 01:13:34;;;;;;;;;5.25;3.00;;;;;17.50;61.29;101187.97;5094152;27;45412;-85
2022/05/12 01:16:02;;;;;;;;;5.25;5.00;;;;;17.53;61.23;101202.03;5091310;27;45497;-83
2022/05/12 01:18:30;;;;;;;;;3.75;3.75;;;;;17.44;61.26;101195.56;5109560;27;46944;-85
2022/05/12 01:20:57;;;;;;;;;6.75;5.75;;;;;17.27;61.23;101177.19;5091336;27;45542;-85
2022/05/12 01:23:31;;;;;;;;;6.00;4.00;;;;;17.35;61.37;101195.41;5095591;27;45400;-84
2022/05/12 01:26:03;;;;;;;;;4.50;4.50;;;;;17.39;61.25;101211.22;5096697;27;45447;-84
2022/05/12 01:28:29;;;;;;;;;4.75;4.25;;;;;17.25;60.96;101187.19;5093501;27;45319;-87
2022/05/12 01:30:55;;;;;;;;;4.25;3.25;;;;;17.37;60.92;101205.09;5109944;27;45351;-85
2022/05/12 01:33:20;;;;;;;;;3.75;3.75;;;;;17.28;60.93;101204.94;5092659;27;45682;-86
2022/05/12 01:35:46;;;;;;;;;5.50;3.75;;;;;17.29;60.72;101212.03;5094503;27;45380;-84
2022/05/12 01:38:13;;;;;;;;;4.75;4.50;;;;;17.23;61.13;101210.66;5112322;27;46017;-83
2022/05/12 01:40:39;;;;;;;;;6.00;6.00;;;;;17.24;61.12;101220.44;5094090;27;45308;-82
2022/05/12 01:43:05;;;;;;;;;5.25;4.25;;;;;17.17;60.82;101205.75;5094144;27;45386;-83
2022/05/12 01:45:30;;;;;;;;;6.50;5.25;;;;;17.24;61.03;101207.00;5094163;27;45416;-85
2022/05/12 01:47:56;;;;;;;;;5.25;4.75;;;;;17.24;60.98;101217.75;5094309;27;46047;-86
2022/05/12 01:50:22;;;;;;;;;4.00;4.00;;;;;17.22;60.94;101217.00;5094997;27;51654;-86
2022/05/12 01:52:47;;;;;;;;;8.00;5.50;;;;;17.20;61.26;101235.97;5095259;27;45228;-86
2022/05/12 01:55:15;;;;;;;;;3.25;3.25;;;;;17.17;61.08;101238.03;5094210;27;45460;-83
2022/05/12 01:57:44;;;;;;;;;8.75;6.25;;;;;17.08;60.48;101210.00;5093705;27;45696;-83
2022/05/12 02:00:17;;;;;;;;;7.00;4.75;;;;;17.17;60.75;101235.34;5093817;27;45447;-83
2022/05/12 02:02:42;;;;;;;;;9.50;6.50;;;;;17.03;61.19;101223.81;5093032;27;45443;-83
2022/05/12 02:05:10;;;;;;;;;9.00;5.75;;;;;16.98;61.44;101247.50;5095688;27;45556;-83
2022/05/12 02:07:40;;;;;;;;;5.75;4.75;;;;;16.88;61.50;101238.41;5093680;27;46206;-83
2022/05/12 02:10:08;;;;;;;;;9.50;7.50;;;;;16.82;61.52;101228.97;5093654;27;45225;-84
2022/05/12 02:12:34;;;;;;;;;10.75;10.00;;;;;16.87;61.54;101241.22;5092289;27;45400;-83
2022/05/12 02:14:59;;;;;;;;;5.75;5.75;;;;;16.93;61.56;101257.75;5093988;27;45468;-83
2022/05/12 02:17:25;;;;;;;;;8.75;7.75;;;;;16.72;61.84;101237.81;5094465;27;46255;-83
2022/05/12 02:19:50;;;;;;;;;5.75;4.25;;;;;16.73;62.24;101258.34;5095108;27;45618;-82
2022/05/12 02:22:18;;;;;;;;;8.50;6.75;;;;;16.64;62.55;101254.47;5093800;27;45623;-83
2022/05/12 02:24:44;;;;;;;;;6.25;6.00;;;;;16.64;62.58;101259.84;5093639;27;45466;-82
2022/05/12 02:27:09;;;;;;;;;7.00;7.00;;;;;16.72;62.32;101267.38;5093629;27;45317;-84
2022/05/12 02:29:34;;;;;;;;;5.00;4.75;;;;;16.76;62.23;101277.81;5093542;27;45290;-84
2022/05/12 02:32:00;;;;;;;;;6.00;6.00;;;;;16.68;61.91;101273.94;5095877;27;45362;-84
2022/05/12 02:34:25;;;;;;;;;8.75;6.75;;;;;16.67;62.05;101273.09;5093390;27;47567;-88
2022/05/12 02:37:03;;;;;;;;;8.00;6.00;;;;;16.59;61.80;101272.78;5093451;27;45985;-87
2022/05/12 02:39:32;;;;;;;;;7.25;5.25;;;;;16.61;61.15;101285.13;5093294;27;45596;-87
2022/05/12 02:41:57;;;;;;;;;5.00;5.00;;;;;16.48;60.21;101257.44;5094893;27;45473;-88
2022/05/12 02:44:23;;;;;;;;;4.50;3.75;;;;;16.60;59.27;101285.28;5098040;27;45495;-87
2022/05/12 02:46:48;;;;;;;;;3.75;3.25;;;;;16.55;57.40;101280.22;5096679;27;49963;-87
2022/05/12 02:49:14;;;;;;;;;3.50;2.25;;;;;16.57;57.81;101288.16;5096713;27;45371;-87
2022/05/12 02:51:39;;;;;;;;;3.00;2.00;;;;;16.55;58.18;101296.34;5095446;27;45259;-88
2022/05/12 02:54:04;;;;;;;;;3.00;3.00;;;;;16.32;58.08;101256.84;5097046;27;45492;-88
2022/05/12 02:56:29;;;;;;;;;3.75;3.50;;;;;16.51;57.70;101291.31;5096790;27;46438;-87
2022/05/12 02:58:55;;;;;;;;;2.25;2.25;;;;;16.50;57.24;101289.56;5098745;27;45315;-86
2022/05/12 03:01:20;;;;;;;;;1.25;1.25;;;;;16.45;57.02;101289.94;5096725;27;45547;-84
2022/05/12 03:03:45;;;;;;;;;2.75;2.50;;;;;16.40;56.78;101294.75;5107772;27;45617;-85
2022/05/12 03:06:11;;;;;;;;;3.75;3.75;;;;;16.45;56.74;101294.41;5096368;27;53826;-86
2022/05/12 03:08:36;;;;;;;;;3.50;2.00;;;;;16.42;56.54;101300.03;5096575;27;45369;-87
2022/05/12 03:11:04;;;;;;;;;3.50;2.00;;;;;16.31;56.96;101314.25;5098964;27;45320;-86
2022/05/12 03:13:31;;;;;;;;;3.50;2.00;;;;;16.22;56.77;101296.09;5096535;27;45579;-84
2022/05/12 03:15:57;;;;;;;;;2.25;2.25;;;;;16.26;57.06;101311.00;5094074;27;45477;-86
2022/05/12 03:18:25;;;;;;;;;2.00;2.00;;;;;16.22;57.33;101317.56;5096343;27;45378;-86
2022/05/12 03:20:50;;;;;;;;;5.00;3.75;;;;;16.13;57.00;101300.28;5094566;27;47790;-87
2022/05/12 03:23:16;;;;;;;;;3.00;2.00;;;;;16.18;57.80;101320.47;5097632;27;51506;-86
2022/05/12 03:25:45;;;;;;;;;5.00;3.25;;;;;16.08;58.28;101314.03;5096811;27;45988;-87
2022/05/12 03:28:10;;;;;;;;;3.75;2.25;;;;;16.12;58.60;101317.38;5096279;27;45380;-87
2022/05/12 03:30:36;;;;;;;;;2.75;2.00;;;;;16.17;58.43;101331.34;5094699;27;45816;-87
2022/05/12 03:33:01;;;;;;;;;3.25;3.00;;;;;16.05;58.28;101314.25;5112231;27;45644;-87
2022/05/12 03:35:26;;;;;;;;;2.25;2.25;;;;;15.97;58.47;101324.69;5096749;27;46135;-86
2022/05/12 03:37:52;;;;;;;;;2.00;2.00;;;;;15.91;58.95;101317.03;5098070;27;45442;-87
2022/05/12 03:40:19;;;;;;;;;3.00;3.00;;;;;15.95;59.08;101322.09;5096220;27;45531;-86
2022/05/12 03:42:46;;;;;;;;;3.00;1.00;;;;;15.88;58.83;101303.81;5094121;27;45425;-86
2022/05/12 03:45:12;;;;;;;;;2.50;1.75;;;;;15.85;58.80;101309.38;5095886;27;46108;-86
2022/05/12 03:47:39;;;;;;;;;2.00;2.00;;;;;15.90;59.06;101323.38;5095990;27;45428;-86
2022/05/12 03:50:09;;;;;;;;;4.00;4.00;;;;;15.85;59.33;101318.31;5098015;27;45454;-86
2022/05/12 03:52:35;;;;;;;;;3.00;3.00;;;;;15.77;59.57;101317.97;5099562;27;45241;-86
2022/05/12 03:55:01;;;;;;;;;4.50;3.00;;;;;15.82;59.80;101320.34;5095810;27;46006;-86
2022/05/12 03:57:28;;;;;;;;;5.25;3.25;;;;;15.85;59.88;101314.75;5095711;27;45237;-83
2022/05/12 03:59:54;;;;;;;;;3.25;3.00;;;;;15.87;60.00;101321.75;5094454;27;45412;-83
2022/05/12 04:02:20;;;;;;;;;5.00;3.00;;;;;15.78;60.04;101308.97;5097064;27;45416;-82
2022/05/12 04:04:47;;;;;;;;;3.00;3.00;;;;;15.89;59.88;101311.75;5096447;27;45374;-84
2022/05/12 04:07:15;;;;;;;;;3.00;2.75;;;;;15.89;60.01;101314.44;5095759;27;45278;-83
2022/05/12 04:09:41;;;;;;;;;8.25;5.00;;;;;15.88;59.99;101317.25;5094034;27;45468;-84
2022/05/12 04:12:11;;;;;;;;;4.25;3.25;;;;;15.85;60.22;101325.50;5095714;27;45377;-83
2022/05/12 04:14:40;;;;;;;;;3.25;2.00;;;;;15.82;59.83;101341.81;5095590;27;45343;-84
2022/05/12 04:17:07;;;;;;;;;3.25;2.75;;;;;15.67;59.63;101311.50;5097683;27;45219;-83
2022/05/12 04:19:33;;;;;;;;;1.00;1.00;;;;;15.72;60.16;101341.59;5095358;27;45551;-86
2022/05/12 04:21:58;;;;;;;;;3.00;1.50;;;;;15.69;60.34;101333.72;5095356;27;45421;-85
2022/05/12 04:24:24;;;;;;;;;2.00;2.00;;;;;15.62;60.56;101346.69;5094826;27;58649;-86
2022/05/12 04:26:49;;;;;;;;;5.00;3.00;;;;;15.64;60.36;101350.13;5095388;27;45402;-87
2022/05/12 04:29:15;;;;;;;;;5.25;3.00;;;;;15.74;60.24;101355.78;5097116;27;45619;-87
2022/05/12 04:31:41;;;;;;;;;3.00;3.00;;;;;15.56;60.47;101341.72;5095404;27;45526;-84
2022/05/12 04:36:52;;;;;;;;;3.25;2.25;;;;;15.50;61.12;101352.91;5094257;27;45412;-85
2022/05/12 04:39:18;;;;;;;;;5.50;4.75;;;;;15.43;61.25;101343.53;5093070;27;45444;-85
2022/05/12 04:41:44;;;;;;;;;4.00;2.00;;;;;15.45;61.24;101347.84;5094573;27;45406;-85
2022/05/12 04:44:10;;;;;;;;;4.25;2.00;;;;;15.36;61.22;101340.38;5092126;27;45396;-85
2022/05/12 04:46:37;;;;;;;;;2.25;2.25;;;;;15.36;61.66;101359.16;5094206;27;45352;-86
2022/05/12 04:49:04;;;;;;;;;5.00;4.00;;;;;15.37;61.59;101351.97;5092562;27;45468;-86
2022/05/12 04:51:30;;;;;;;;;2.25;2.25;;;;;15.30;61.22;101347.03;5094163;27;45330;-85
2022/05/12 04:53:55;;;;;;;;;4.75;2.75;;;;;15.45;61.52;101366.63;5094064;27;47293;-85
2022/05/12 04:56:20;;;;;;;;;2.25;2.00;;;;;15.43;61.71;101373.03;5094730;27;45413;-86
2022/05/12 04:58:46;;;;;;;;;4.25;3.00;;;;;15.35;61.72;101378.94;5094930;27;45403;-86
2022/05/12 05:01:11;;;;;;;;;3.75;3.75;;;;;15.07;61.95;101335.13;5094130;27;45402;-86
2022/05/12 05:03:36;;;;;;;;;4.25;2.75;;;;;15.30;61.80;101364.97;5093007;27;46045;-85
2022/05/12 05:06:02;;;;;;;;;2.50;2.00;;;;;15.33;61.95;101376.34;5105682;27;45526;-85
2022/05/12 05:08:28;;;;;;;;;3.25;3.25;;;;;15.32;61.99;101363.00;5092175;27;45399;-85
2022/05/12 05:10:53;;;;;;;;;5.00;3.25;;;;;15.33;61.86;101357.56;5093946;27;45216;-85
2022/05/12 05:13:21;;;;;;;;;3.75;3.00;;;;;15.36;61.75;101356.50;5093703;27;45401;-83
2022/05/12 05:15:48;;;;;;;;;6.00;3.50;;;;;15.48;61.58;101379.81;5093891;27;45351;-85
2022/05/12 05:18:16;;;;;;;;;7.50;5.00;;;;;15.37;61.66;101371.66;5092487;27;45476;-85
2022/05/12 05:20:43;;;;;;;;;4.00;4.00;;;;;15.41;62.22;101381.19;5077698;27;45501;-85
2022/05/12 05:23:10;;;;;;;;;6.50;5.00;;;;;15.45;61.09;101385.41;5096453;27;46483;-86
2022/05/12 05:25:35;;;;;;;;;11.00;7.00;;;;;15.26;61.03;101380.38;5094268;27;45574;-85
2022/05/12 05:28:01;;;;;;;;;3.25;3.25;;;;;15.25;60.95;101377.78;5092920;27;45364;-84
2022/05/12 05:30:27;;;;;;;;;7.00;7.00;;;;;15.19;60.65;101376.38;5094333;27;45366;-85
2022/05/12 05:32:54;;;;;;;;;5.00;5.00;;;;;15.34;60.44;101410.25;5094191;27;45582;-85
2022/05/12 05:35:20;;;;;;;;;6.25;3.50;;;;;15.21;60.16;101384.34;5095798;27;45345;-84
2022/05/12 05:37:48;;;;;;;;;52.50;41.25;;;;;15.28;60.87;101410.66;5095294;27;45482;-85
2022/05/12 05:40:15;;;;;;;;;47.25;39.25;;;;;15.12;61.10;101385.78;5094086;27;45257;-86
2022/05/12 05:42:43;;;;;;;;;7.75;5.25;;;;;15.25;60.70;101410.88;5094145;27;45315;-85
2022/05/12 05:45:15;;;;;;;;;5.25;4.75;;;;;15.25;61.01;101412.66;5094251;27;45495;-85
2022/05/12 05:47:45;;;;;;;;;6.00;4.00;;;;;15.27;61.37;101424.16;5094450;27;45359;-89
2022/05/12 05:50:13;;;;;;;;;5.75;4.75;;;;;15.32;61.26;101435.44;5096464;27;45477;-87
2022/05/12 05:55:22;;;;;;;;;7.75;5.00;;;;;15.37;60.95;101435.16;5093450;27;45433;-87
2022/05/12 05:57:48;;;;;;;;;3.50;3.00;;;;;15.24;61.19;101419.84;5092085;27;45462;-87
2022/05/12 06:00:15;;;;;;;;;6.25;4.50;;;;;15.31;60.94;101434.59;5093559;27;45537;-85
2022/05/12 06:02:41;;;;;;;;;5.75;5.75;;;;;15.46;60.71;101447.97;5092322;27;45552;-86
2022/05/12 06:05:07;;;;;;;;;5.00;5.00;;;;;15.43;60.56;101453.53;5095582;27;45246;-85
2022/05/12 06:07:35;;;;;;;;;7.25;3.50;;;;;15.51;61.17;101473.56;5092562;27;45347;-85
2022/05/12 06:10:01;;;;;;;;;6.50;4.00;;;;;15.56;61.08;101470.53;5093521;27;45499;-84
2022/05/12 06:12:28;;;;;;;;;6.00;5.00;;;;;15.59;60.72;101475.75;5104962;27;46619;-86
2022/05/12 06:14:53;;;;;;;;;4.00;4.00;;;;;15.65;60.69;101478.00;5094079;27;45422;-87
2022/05/12 06:17:18;;;;;;;;;3.75;3.75;;;;;15.71;60.09;101483.00;5097710;27;46618;-84
2022/05/12 06:19:44;;;;;;;;;7.50;5.75;;;;;15.51;60.56;101461.94;5098139;27;45427;-87
2022/05/12 06:22:09;;;;;;;;;6.25;6.25;;;;;15.62;60.24;101474.66;5095398;27;48046;-83
2022/05/12 06:24:35;;;;;;;;;5.00;5.00;;;;;15.60;60.77;101482.81;5096682;27;45459;-83
2022/05/12 06:27:01;;;;;;;;;7.75;7.00;;;;;15.62;61.01;101483.56;5096543;27;45450;-85
2022/05/12 06:29:26;;;;;;;;;6.25;6.00;;;;;15.48;60.94;101446.91;5097729;27;45580;-87
2022/05/12 06:31:51;;;;;;;;;7.75;6.00;;;;;15.72;60.02;101478.50;5098005;27;47027;-89
2022/05/12 06:34:17;;;;;;;;;6.25;5.00;;;;;15.53;59.73;101463.56;5094541;27;45593;-88
2022/05/12 06:36:44;;;;;;;;;5.25;5.00;;;;;15.65;60.00;101486.06;5094938;27;45722;-83
2022/05/12 06:39:09;;;;;;;;;6.00;5.00;;;;;15.71;59.77;101477.66;5092185;27;45533;-85
2022/05/12 06:41:35;;;;;;;;;6.50;5.75;;;;;15.76;58.96;101482.72;5092490;27;46049;-83
2022/05/12 06:46:37;;;;;;;;;6.25;4.50;;;;;15.75;59.13;101484.53;4527777;22;47183;-83
2022/05/12 06:49:03;;;;;;;;;4.00;3.50;;;;;15.81;58.62;101503.88;4976255;28;45577;-82
2022/05/12 06:57:27;;;;;;;;;5.75;4.00;;;;;15.92;58.57;101504.03;4927361;28;45661;-87
2022/05/12 06:59:53;;;;;;;;;7.00;5.00;;;;;15.92;58.40;101487.91;4937101;28;45541;-87
2022/05/12 07:02:18;;;;;;;;;2.50;2.50;;;;;16.06;57.48;101489.69;4939786;28;46063;-88
2022/05/12 07:04:45;;;;;;;;;5.00;3.75;;;;;15.99;56.54;101481.16;4937256;28;45381;-88
2022/05/12 07:07:11;;;;;;;;;3.00;3.00;;;;;16.10;56.09;101496.56;4936224;28;45585;-86
2022/05/12 07:09:37;;;;;;;;;5.50;3.25;;;;;16.12;55.96;101495.50;4934344;28;45703;-87
2022/05/12 07:12:03;;;;;;;;;3.00;3.00;;;;;16.09;55.45;101487.66;4935795;28;47097;-87
2022/05/12 07:14:28;;;;;;;;;3.00;3.00;;;;;16.10;56.13;101493.88;4934895;28;45822;-88
2022/05/12 07:16:54;;;;;;;;;3.50;3.50;;;;;16.06;56.80;101482.47;4942761;28;45494;-88
2022/05/12 07:19:19;;;;;;;;;5.00;4.00;;;;;16.21;56.10;101501.22;4936757;28;45521;-88
2022/05/12 07:27:15;;;;;;;;;4.25;4.25;;;;;16.13;56.54;101490.97;4936175;28;45556;-89
2022/05/12 07:29:40;;;;;;;;;7.25;4.00;;;;;16.10;56.65;101472.41;4936663;28;45691;-89
2022/05/12 07:32:07;;;;;;;;;7.75;4.25;;;;;16.28;56.05;101497.13;4937138;28;46455;-88
2022/05/12 07:34:33;;;;;;;;;6.75;6.00;;;;;16.31;55.81;101494.25;4935864;28;46536;-89
2022/05/12 07:36:58;;;;;;;;;6.00;5.50;;;;;16.38;56.02;101498.25;4936767;28;45504;-88
2022/05/12 07:39:28;;;;;;;;;7.50;6.00;;;;;16.43;55.61;101488.06;4934096;28;45449;-89
2022/05/12 07:41:55;;;;;;;;;5.75;4.00;;;;;16.46;55.66;101490.50;4933109;28;45927;-89
2022/05/12 07:44:22;;;;;;;;;4.00;4.00;;;;;16.34;55.13;101478.78;4936751;28;45470;-88
2022/05/12 07:46:49;;;;;;;;;5.00;5.00;;;;;16.33;55.09;101468.13;4937496;28;45423;-88
2022/05/12 07:49:15;;;;;;;;;6.75;6.75;;;;;16.56;54.98;101496.13;4935653;28;45493;-89
2022/05/12 07:51:40;;;;;;;;;5.75;4.75;;;;;16.55;55.09;101487.19;4932196;28;45964;-86
2022/05/12 08:05:29;;;;;;;;;5.00;5.00;;;;;16.70;55.19;101500.53;4432151;23;48002;-74
2022/05/12 08:07:55;;;;;;;;;7.00;6.00;;;;;16.61;54.00;101481.38;4973916;28;45464;-74
2022/05/12 08:10:21;;;;;;;;;5.25;4.00;;;;;16.51;54.22;101480.31;4975732;28;45348;-74
2022/05/12 08:12:47;;;;;;;;;7.25;6.50;;;;;16.50;53.56;101477.72;4974595;28;46280;-74
2022/05/12 08:15:13;;;;;;;;;5.75;4.00;;;;;16.67;53.62;101487.28;4974225;28;45559;-74
2022/05/12 08:17:38;;;;;;;;;4.50;4.50;;;;;16.89;53.93;101508.22;4981685;28;45506;-74
2022/05/12 08:20:05;;;;;;;;;4.75;3.50;;;;;16.76;53.49;101467.81;4976910;28;45411;-74
2022/05/12 08:22:32;;;;;;;;;5.25;3.75;;;;;17.03;52.77;101508.94;4977435;28;46230;-74
2022/05/12 08:24:58;;;;;;;;;0.25;0.25;;;;;17.13;52.80;101511.00;4978832;28;45548;-74
2022/05/12 08:27:24;;;;;;;;;5.50;3.00;;;;;17.21;52.06;101514.84;4977919;28;45584;-74
2022/05/12 08:29:50;;;;;;;;;4.00;4.00;;;;;17.25;51.56;101516.34;4974453;28;45542;-73
2022/05/12 08:32:16;;;;;;;;;4.00;4.00;;;;;17.34;51.57;101516.63;4980049;28;45455;-73
2022/05/12 08:34:41;;;;;;;;;7.00;7.00;;;;;17.40;50.98;101513.53;4977207;28;45478;-73
2022/05/12 08:37:09;;;;;;;;;4.50;3.50;;;;;17.39;50.95;101507.28;4978313;28;45369;-73
2022/05/12 08:39:34;;;;;;;;;4.00;3.00;;;;;17.54;51.14;101513.38;4973406;28;45597;-74
2022/05/12 08:42:09;;;;;;;;;3.50;2.75;;;;;17.62;51.29;101497.50;4973524;28;45479;-74
2022/05/12 08:44:39;;;;;;;;;5.00;3.00;;;;;17.74;50.39;101506.50;4973919;28;45404;-74
2022/05/12 08:47:10;;;;;;;;;5.25;3.00;;;;;17.71;50.69;101508.59;4974126;28;45559;-73
2022/05/12 08:49:47;;;;;;;;;4.00;3.50;;;;;17.75;50.36;101501.97;4975195;28;45624;-73
2022/05/12 08:52:39;;;;;;;;;5.00;3.75;;;;;17.80;50.02;101494.44;4975812;28;47331;-73
2022/05/12 08:55:29;;;;;;;;;4.25;3.25;;;;;17.86;49.62;101502.09;4970736;28;45555;-73
2022/05/12 08:58:06;;;;;;;;;4.00;3.25;;;;;17.94;49.80;101502.34;4966136;28;45413;-74
2022/05/12 09:00:51;;;;;;;;;3.50;2.00;;;;;18.08;49.47;101504.88;4974940;28;45505;-73
2022/05/12 09:03:43;;;;;;;;;3.00;3.00;;;;;18.18;48.96;101504.19;4971589;28;46560;-74
2022/05/12 09:06:17;;;;;;;;;2.75;2.75;;;;;18.18;48.29;101502.34;4965854;28;45354;-73
2022/05/12 09:08:57;;;;;;;;;6.75;4.00;;;;;18.26;48.46;101497.25;4975741;28;45635;-74
2022/05/12 09:11:31;;;;;;;;;5.00;5.00;;;;;18.36;47.66;101504.63;4975080;28;45475;-73
2022/05/12 09:14:00;;;;;;;;;3.75;3.25;;;;;18.38;47.46;101500.84;4974089;28;46188;-73
2022/05/12 09:16:30;;;;;;;;;2.75;2.75;;;;;18.34;47.23;101499.34;4974010;28;45550;-73
2022/05/12 09:18:56;;;;;;;;;5.00;2.75;;;;;18.24;47.52;101499.19;4972487;28;45460;-73
2022/05/12 09:21:25;;;;;;;;;3.75;2.75;;;;;18.19;47.21;101504.06;4973413;28;45459;-73
2022/05/12 09:23:51;;;;;;;;;2.00;2.00;;;;;18.20;47.47;101503.09;4972175;28;46403;-73
2022/05/12 09:26:46;;;;;;;;;2.25;2.25;;;;;18.22;47.39;101505.69;4974168;28;45359;-72
2022/05/12 09:29:22;;;;;;;;;1.00;1.00;;;;;18.31;47.39;101511.22;4974154;28;45342;-73
2022/05/12 09:32:16;;;;;;;;;2.75;1.75;;;;;18.28;47.17;101519.56;4987392;28;45377;-73
2022/05/12 09:34:46;;;;;;;;;4.50;2.50;;;;;18.33;47.73;101504.84;4970690;28;46002;-73
2022/05/12 09:37:20;;;;;;;;;2.00;2.00;;;;;18.41;47.09;101499.75;4975499;28;45484;-73
2022/05/12 09:39:51;;;;;;;;;1.25;1.25;;;;;18.47;46.95;101500.13;4972659;28;45527;-73
2022/05/12 09:42:17;;;;;;;;;3.00;2.00;;;;;18.54;47.15;101503.19;4974701;28;45365;-73
2022/05/12 09:44:54;;;;;;;;;3.75;3.00;;;;;18.54;46.91;101497.78;4974870;28;46367;-73
2022/05/12 09:47:19;;;;;;;;;2.00;2.00;;;;;18.56;46.88;101492.28;4974301;28;45319;-73
2022/05/12 09:49:46;;;;;;;;;2.00;2.00;;;;;18.62;46.51;101495.38;4977762;28;45817;-73
2022/05/12 09:52:26;;;;;;;;;2.25;2.25;;;;;18.70;46.84;101494.78;4975210;28;45301;-73
2022/05/12 09:55:17;;;;;;;;;2.25;2.25;;;;;18.72;47.14;101498.22;4974864;28;45594;-73
2022/05/12 09:57:51;;;;;;;;;2.00;2.00;;;;;18.78;46.92;101492.34;4913114;28;45428;-73
2022/05/12 10:00:26;;;;;;;;;6.00;4.00;;;;;18.79;46.82;101485.13;4912509;28;45501;-73
2022/05/12 10:09:06;;;;;;;;;2.00;2.00;;;;;18.96;46.27;101483.81;4906543;28;45608;-73
2022/05/12 10:11:40;;;;;;;;;2.75;2.00;;;;;19.01;45.91;101478.88;4913736;28;45510;-73
2022/05/12 10:14:10;;;;;;;;;2.50;2.00;;;;;19.14;45.94;101479.59;4912002;28;45370;-73
2022/05/12 10:16:35;;;;;;;;;3.00;3.00;;;;;19.28;46.27;101481.19;4911666;28;47328;-74
2022/05/12 10:19:08;;;;;;;;;2.75;2.00;;;;;19.22;44.82;101482.56;4913756;28;45575;-73
2022/05/12 10:21:45;;;;;;;;;6.75;6.75;;;;;19.11;45.37;101469.06;4912116;28;45541;-73
2022/05/12 10:24:29;;;;;;;;;5.00;2.50;;;;;19.23;45.72;101468.06;4911231;28;45557;-73
2022/05/12 10:27:04;;;;;;;;;2.00;2.00;;;;;19.20;45.52;101465.63;4910815;28;46128;-73
2022/05/12 10:29:38;;;;;;;;;2.00;2.00;;;;;19.23;45.59;101472.63;4911021;28;45416;-73
2022/05/12 10:32:26;;;;;;;;;3.75;3.50;;;;;19.04;45.86;101449.81;4896015;28;45381;-74
2022/05/12 10:35:20;;;;;;;;;3.75;3.75;;;;;19.14;45.85;101480.47;4942538;28;45473;-73
2022/05/12 10:38:11;;;;;;;;;3.00;2.50;;;;;19.00;45.99;101463.66;4968207;28;47120;-73
2022/05/12 10:40:45;;;;;;;;;3.00;3.00;;;;;19.10;45.74;101475.47;4971776;28;45368;-73
2022/05/12 10:43:34;;;;;;;;;2.00;2.00;;;;;19.16;46.15;101474.94;4974527;28;45339;-73
2022/05/12 10:46:23;;;;;;;;;2.75;2.00;;;;;19.37;46.88;101469.66;4966125;28;45585;-74
2022/05/12 10:49:12;;;;;;;;;2.00;2.00;;;;;19.51;45.23;101476.63;4973574;28;46465;-73
2022/05/12 10:51:52;;;;;;;;;2.00;2.00;;;;;19.56;44.70;101464.47;4955978;28;45535;-73
2022/05/12 10:54:39;;;;;;;;;6.00;6.00;;;;;19.58;45.54;101462.50;4973646;28;45523;-73
2022/05/12 10:57:32;;;;;;;;;3.25;2.75;;;;;19.62;45.50;101454.13;4974069;28;45575;-73
2022/05/12 11:00:32;;;;;;;;;2.00;2.00;;;;;19.56;45.57;101456.34;4972984;28;45478;-73
2022/05/12 11:03:22;;;;;;;;;6.00;3.00;;;;;19.48;45.53;101448.03;4888967;29;45332;-73
2022/05/12 11:05:56;;;;;;;;;4.00;3.00;;;;;19.56;45.70;101459.06;4896454;29;45862;-71
2022/05/12 11:08:34;;;;;;;;;3.50;3.00;;;;;19.70;45.56;101455.25;4897287;29;45429;-71
2022/05/12 11:11:02;;;;;;;;;3.00;3.00;;;;;19.72;45.29;101450.59;4891422;29;45482;-71
2022/05/12 11:13:39;;;;;;;;;2.75;2.00;;;;;19.88;45.15;101450.13;4890722;29;45352;-71
2022/05/12 11:16:10;;;;;;;;;3.00;3.00;;;;;20.07;44.64;101456.69;4889214;29;45504;-71
2022/05/12 11:19:12;;;;;;;;;4.25;2.25;;;;;20.07;44.14;101451.28;4890989;29;45400;-71
2022/05/12 11:21:52;;;;;;;;;2.50;2.00;;;;;20.00;44.28;101451.78;4895863;29;45512;-71
2022/05/12 11:24:29;;;;;;;;;3.75;3.75;;;;;20.05;44.80;101453.25;4893662;29;45571;-71
2022/05/12 11:27:05;;;;;;;;;3.50;2.00;;;;;20.10;43.97;101459.13;4896062;29;45480;-70
2022/05/12 11:30:00;;;;;;;;;4.00;3.25;;;;;20.20;44.44;101452.81;4896677;29;45566;-71
2022/05/12 11:32:29;;;;;;;;;4.25;2.75;;;;;20.27;44.02;101453.13;4893683;29;45545;-71
2022/05/12 11:35:04;;;;;;;;;3.00;2.50;;;;;20.34;43.04;101461.56;4887683;29;45588;-71
2022/05/12 11:37:53;;;;;;;;;2.00;2.00;;;;;20.37;42.96;101458.59;4896177;29;45543;-71
2022/05/12 11:40:44;;;;;;;;;3.25;2.00;;;;;20.26;43.24;101445.16;4950793;28;45563;-71
2022/05/12 11:46:23;;;;;;;;;2.00;2.00;;;;;20.66;43.13;101448.00;4966567;28;45476;-71
2022/05/12 11:49:03;;;;;;;;;3.50;3.50;;;;;20.76;42.50;101446.22;4975496;28;45400;-71
2022/05/12 11:51:59;;;;;;;;;3.50;3.50;;;;;20.84;42.60;101453.66;4974715;28;45639;-71
2022/05/12 11:54:35;;;;;;;;;2.25;2.25;;;;;20.68;41.99;101445.16;4973911;28;46201;-71
2022/05/12 11:57:04;;;;;;;;;2.75;2.75;;;;;20.64;42.44;101450.00;4974881;28;45581;-71
2022/05/12 11:59:30;;;;;;;;;4.75;1.75;;;;;20.61;42.65;101444.81;4975519;28;45518;-71
2022/05/12 12:01:57;;;;;;;;;3.00;2.00;;;;;20.68;41.97;101450.56;4974375;28;45352;-72
2022/05/12 12:04:50;;;;;;;;;2.25;2.25;;;;;20.66;42.11;101452.53;4975304;28;45484;-71
2022/05/12 12:07:27;;;;;;;;;3.00;2.00;;;;;20.76;42.19;101454.31;4968467;28;45445;-72
2022/05/12 12:09:56;;;;;;;;;2.50;2.50;;;;;20.64;42.01;101442.72;4976588;28;45387;-71
2022/05/12 12:12:45;;;;;;;;;3.75;2.75;;;;;20.64;42.37;101440.03;4975277;28;45538;-71
2022/05/12 12:15:32;;;;;;;;;2.50;1.00;;;;;20.74;42.73;101436.50;4968051;28;46074;-71